sensor_id;sensor_type;location;lat;lon;timestamp;pressure;altitude;pressure_sealevel;temperature;humidity
75681;BME280;64294;49.176;16.626;2023-03-24T00:00:12;98784.19;;;13.48;68.12
75681;BME280;64294;49.176;16.626;2023-03-24T00:02:40;98788.31;;;13.47;68.30
75681;BME280;64294;49.176;16.626;2023-03-24T00:05:09;98791.50;;;13.51;67.26
75681;BME280;64294;49.176;16.626;2023-03-24T00:07:35;98781.53;;;13.50;67.22
75681;BME280;64294;49.176;16.626;2023-03-24T00:10:08;98787.97;;;13.43;67.68
75681;BME280;64294;49.176;16.626;2023-03-24T00:12:36;98787.63;;;13.39;68.93
75681;BME280;64294;49.176;16.626;2023-03-24T00:15:06;98780.09;;;13.34;68.28
75681;BME280;64294;49.176;16.626;2023-03-24T00:17:32;98775.59;;;13.31;68.41
75681;BME280;64294;49.176;16.626;2023-03-24T00:20:01;98778.22;;;13.29;68.47
75681;BME280;64294;49.176;16.626;2023-03-24T00:22:26;98786.50;;;13.27;68.42
75681;BME280;64294;49.176;16.626;2023-03-24T00:24:52;98786.69;;;13.29;68.85
75681;BME280;64294;49.176;16.626;2023-03-24T00:27:18;98794.63;;;13.23;68.97
75681;BME280;64294;49.176;16.626;2023-03-24T00:29:44;98794.78;;;13.17;69.60
75681;BME280;64294;49.176;16.626;2023-03-24T00:32:09;98789.53;;;13.14;69.62
75681;BME280;64294;49.176;16.626;2023-03-24T00:34:35;98782.03;;;13.09;69.94
75681;BME280;64294;49.176;16.626;2023-03-24T00:37:05;98788.41;;;13.09;69.93
75681;BME280;64294;49.176;16.626;2023-03-24T00:39:31;98787.84;;;13.11;70.25
75681;BME280;64294;49.176;16.626;2023-03-24T00:41:56;98776.03;;;13.04;71.05
75681;BME280;64294;49.176;16.626;2023-03-24T00:44:23;98786.16;;;13.08;71.20
75681;BME280;64294;49.176;16.626;2023-03-24T00:46:50;98774.88;;;13.08;71.71
75681;BME280;64294;49.176;16.626;2023-03-24T00:49:38;98772.63;;;12.98;73.07
75681;BME280;64294;49.176;16.626;2023-03-24T00:52:24;98779.41;;;12.95;72.85
75681;BME280;64294;49.176;16.626;2023-03-24T00:54:52;98767.19;;;12.93;73.42
75681;BME280;64294;49.176;16.626;2023-03-24T00:57:22;98767.00;;;12.91;73.48
75681;BME280;64294;49.176;16.626;2023-03-24T00:59:52;98764.75;;;12.89;74.54
75681;BME280;64294;49.176;16.626;2023-03-24T01:02:24;98762.50;;;12.88;73.94
75681;BME280;64294;49.176;16.626;2023-03-24T01:04:54;98755.56;;;12.89;73.95
75681;BME280;64294;49.176;16.626;2023-03-24T01:07:21;98760.25;;;12.86;74.16
75681;BME280;64294;49.176;16.626;2023-03-24T01:09:47;98745.41;;;12.86;73.60
75681;BME280;64294;49.176;16.626;2023-03-24T01:12:17;98755.19;;;12.85;74.06
75681;BME280;64294;49.176;16.626;2023-03-24T01:14:43;98747.31;;;12.83;74.30
75681;BME280;64294;49.176;16.626;2023-03-24T01:17:09;98743.69;;;12.83;75.14
75681;BME280;64294;49.176;16.626;2023-03-24T01:19:34;98758.94;;;12.87;74.11
75681;BME280;64294;49.176;16.626;2023-03-24T01:22:01;98747.84;;;12.82;74.15
75681;BME280;64294;49.176;16.626;2023-03-24T01:24:26;98749.72;;;12.87;73.17
75681;BME280;64294;49.176;16.626;2023-03-24T01:26:52;98746.16;;;12.86;72.83
75681;BME280;64294;49.176;16.626;2023-03-24T01:29:17;98742.22;;;12.89;73.34
75681;BME280;64294;49.176;16.626;2023-03-24T01:31:42;98741.09;;;12.85;73.15
75681;BME280;64294;49.176;16.626;2023-03-24T01:34:08;98735.44;;;12.77;73.70
75681;BME280;64294;49.176;16.626;2023-03-24T01:36:33;98732.25;;;12.81;74.44
75681;BME280;64294;49.176;16.626;2023-03-24T01:38:59;98724.91;;;12.78;75.11
75681;BME280;64294;49.176;16.626;2023-03-24T01:41:35;98733.56;;;12.80;74.42
75681;BME280;64294;49.176;16.626;2023-03-24T01:44:21;98731.88;;;12.77;74.69
75681;BME280;64294;49.176;16.626;2023-03-24T01:46:46;98727.56;;;12.76;74.78
75681;BME280;64294;49.176;16.626;2023-03-24T01:49:12;98723.25;;;12.74;75.31
75681;BME280;64294;49.176;16.626;2023-03-24T01:51:43;98726.28;;;12.69;75.17
75681;BME280;64294;49.176;16.626;2023-03-24T01:54:17;98735.81;;;12.81;74.46
75681;BME280;64294;49.176;16.626;2023-03-24T01:56:50;98727.78;;;12.70;74.30
75681;BME280;64294;49.176;16.626;2023-03-24T01:59:21;98736.03;;;12.68;75.42
75681;BME280;64294;49.176;16.626;2023-03-24T02:01:48;98721.75;;;12.73;74.94
75681;BME280;64294;49.176;16.626;2023-03-24T02:04:13;98719.50;;;12.72;75.36
75681;BME280;64294;49.176;16.626;2023-03-24T02:06:42;98714.41;;;12.70;75.52
75681;BME280;64294;49.176;16.626;2023-03-24T02:09:09;98705.59;;;12.66;75.75
75681;BME280;64294;49.176;16.626;2023-03-24T02:11:36;98713.31;;;12.66;76.28
75681;BME280;64294;49.176;16.626;2023-03-24T02:14:03;98716.31;;;12.60;77.53
75681;BME280;64294;49.176;16.626;2023-03-24T02:20:05;98702.03;;;12.58;78.11
75681;BME280;64294;49.176;16.626;2023-03-24T02:28:13;98699.97;;;12.43;80.11
75681;BME280;64294;49.176;16.626;2023-03-24T02:39:43;98686.88;;;12.31;81.19
75681;BME280;64294;49.176;16.626;2023-03-24T02:45:20;98690.78;;;12.35;81.42
75681;BME280;64294;49.176;16.626;2023-03-24T02:48:30;98685.53;;;12.32;82.47
75681;BME280;64294;49.176;16.626;2023-03-24T02:51:14;98694.56;;;12.30;83.06
75681;BME280;64294;49.176;16.626;2023-03-24T02:58:59;98682.53;;;12.22;83.73
75681;BME280;64294;49.176;16.626;2023-03-24T03:01:53;98680.47;;;12.15;81.88
75681;BME280;64294;49.176;16.626;2023-03-24T03:04:30;98690.63;;;12.18;84.65
75681;BME280;64294;49.176;16.626;2023-03-24T03:07:05;98680.88;;;12.11;83.73
75681;BME280;64294;49.176;16.626;2023-03-24T03:09:36;98678.97;;;12.14;83.61
75681;BME280;64294;49.176;16.626;2023-03-24T03:12:04;98675.03;;;12.09;84.83
75681;BME280;64294;49.176;16.626;2023-03-24T03:14:43;98669.59;;;12.04;84.63
75681;BME280;64294;49.176;16.626;2023-03-24T03:17:20;98666.75;;;12.04;84.59
75681;BME280;64294;49.176;16.626;2023-03-24T03:19:57;98668.84;;;11.96;85.15
75681;BME280;64294;49.176;16.626;2023-03-24T03:22:42;98668.06;;;11.88;85.20
75681;BME280;64294;49.176;16.626;2023-03-24T03:25:11;98666.00;;;11.80;85.55
75681;BME280;64294;49.176;16.626;2023-03-24T03:27:39;98659.78;;;11.74;85.61
75681;BME280;64294;49.176;16.626;2023-03-24T03:30:37;98660.16;;;11.71;85.86
75681;BME280;64294;49.176;16.626;2023-03-24T03:33:12;98653.38;;;11.66;86.85
75681;BME280;64294;49.176;16.626;2023-03-24T03:35:47;98650.00;;;11.60;86.48
75681;BME280;64294;49.176;16.626;2023-03-24T03:38:30;98647.75;;;11.59;87.11
75681;BME280;64294;49.176;16.626;2023-03-24T03:41:02;98647.19;;;11.60;86.76
75681;BME280;64294;49.176;16.626;2023-03-24T03:43:30;98645.13;;;11.61;86.97
75681;BME280;64294;49.176;16.626;2023-03-24T03:45:58;98643.06;;;11.61;86.87
75681;BME280;64294;49.176;16.626;2023-03-24T03:48:24;98639.31;;;11.59;87.12
75681;BME280;64294;49.176;16.626;2023-03-24T03:50:51;98637.06;;;11.57;87.08
75681;BME280;64294;49.176;16.626;2023-03-24T03:53:19;98636.31;;;11.57;86.99
75681;BME280;64294;49.176;16.626;2023-03-24T03:55:47;98637.06;;;11.57;87.72
75681;BME280;64294;49.176;16.626;2023-03-24T03:58:12;98631.44;;;11.57;87.72
75681;BME280;64294;49.176;16.626;2023-03-24T04:00:38;98634.41;;;11.51;88.16
75681;BME280;64294;49.176;16.626;2023-03-24T04:06:08;98636.88;;;11.55;88.00
75681;BME280;64294;49.176;16.626;2023-03-24T04:08:48;98636.47;;;11.51;88.00
75681;BME280;64294;49.176;16.626;2023-03-24T04:19:27;98627.47;;;11.52;88.53
75681;BME280;64294;49.176;16.626;2023-03-24T04:24:52;98616.41;;;11.47;88.82
75681;BME280;64294;49.176;16.626;2023-03-24T04:32:44;98622.78;;;11.40;89.13
75681;BME280;64294;49.176;16.626;2023-03-24T04:35:30;98615.66;;;11.39;89.13
75681;BME280;64294;49.176;16.626;2023-03-24T04:38:06;98618.28;;;11.37;89.86
75681;BME280;64294;49.176;16.626;2023-03-24T04:40:34;98614.16;;;11.38;89.64
75681;BME280;64294;49.176;16.626;2023-03-24T04:43:03;98620.53;;;11.38;89.52
75681;BME280;64294;49.176;16.626;2023-03-24T04:45:30;98616.41;;;11.39;89.67
75681;BME280;64294;49.176;16.626;2023-03-24T04:48:04;98616.03;;;11.50;89.60
75681;BME280;64294;49.176;16.626;2023-03-24T04:50:37;98617.91;;;11.48;89.38
75681;BME280;64294;49.176;16.626;2023-03-24T04:53:04;98615.28;;;11.50;89.27
75681;BME280;64294;49.176;16.626;2023-03-24T04:58:14;98614.16;;;11.38;90.07
75681;BME280;64294;49.176;16.626;2023-03-24T05:00:39;98611.53;;;11.40;90.00
75681;BME280;64294;49.176;16.626;2023-03-24T05:03:05;98614.16;;;11.38;89.86
75681;BME280;64294;49.176;16.626;2023-03-24T05:05:31;98616.59;;;11.49;89.53
75681;BME280;64294;49.176;16.626;2023-03-24T05:07:57;98613.22;;;11.50;89.24
75681;BME280;64294;49.176;16.626;2023-03-24T05:10:23;98608.56;;;11.53;89.44
75681;BME280;64294;49.176;16.626;2023-03-24T05:12:49;98616.22;;;11.45;89.92
75681;BME280;64294;49.176;16.626;2023-03-24T05:15:15;98617.72;;;11.46;89.86
75681;BME280;64294;49.176;16.626;2023-03-24T05:17:40;98618.69;;;11.56;89.21
75681;BME280;64294;49.176;16.626;2023-03-24T05:20:06;98622.81;;;11.70;87.54
75681;BME280;64294;49.176;16.626;2023-03-24T05:22:36;98612.50;;;11.73;86.25
75681;BME280;64294;49.176;16.626;2023-03-24T05:25:02;98605.94;;;11.86;85.46
75681;BME280;64294;49.176;16.626;2023-03-24T05:27:27;98600.31;;;11.86;86.54
75681;BME280;64294;49.176;16.626;2023-03-24T05:29:53;98609.50;;;11.86;86.56
75681;BME280;64294;49.176;16.626;2023-03-24T05:32:18;98607.25;;;11.85;87.28
75681;BME280;64294;49.176;16.626;2023-03-24T05:34:44;98605.41;;;11.95;87.00
75681;BME280;64294;49.176;16.626;2023-03-24T05:37:09;98612.50;;;12.11;85.07
75681;BME280;64294;49.176;16.626;2023-03-24T05:39:37;98612.69;;;12.13;84.53
75681;BME280;64294;49.176;16.626;2023-03-24T05:42:02;98620.19;;;12.18;84.03
75681;BME280;64294;49.176;16.626;2023-03-24T05:44:28;98608.50;;;12.37;81.56
75681;BME280;64294;49.176;16.626;2023-03-24T05:46:53;98612.06;;;12.45;81.37
75681;BME280;64294;49.176;16.626;2023-03-24T05:49:18;98609.22;;;12.53;81.38
75681;BME280;64294;49.176;16.626;2023-03-24T05:51:44;98613.72;;;12.56;81.11
75681;BME280;64294;49.176;16.626;2023-03-24T05:54:09;98614.44;;;12.64;80.30
75681;BME280;64294;49.176;16.626;2023-03-24T05:56:35;98616.44;;;12.86;79.85
75681;BME280;64294;49.176;16.626;2023-03-24T05:59:00;98621.81;;;12.99;78.76
75681;BME280;64294;49.176;16.626;2023-03-24T06:01:25;98612.75;;;13.09;78.34
75681;BME280;64294;49.176;16.626;2023-03-24T06:03:53;98602.41;;;13.11;78.02
75681;BME280;64294;49.176;16.626;2023-03-24T06:06:18;98605.41;;;13.21;77.74
75681;BME280;64294;49.176;16.626;2023-03-24T06:08:43;98610.47;;;13.22;77.13
75681;BME280;64294;49.176;16.626;2023-03-24T06:11:10;98604.75;;;13.30;76.13
75681;BME280;64294;49.176;16.626;2023-03-24T06:13:36;98605.91;;;13.59;75.75
75681;BME280;64294;49.176;16.626;2023-03-24T06:16:02;98609.81;;;13.64;74.98
75681;BME280;64294;49.176;16.626;2023-03-24T06:18:27;98606.78;;;13.87;73.95
75681;BME280;64294;49.176;16.626;2023-03-24T06:20:55;98606.84;;;14.04;73.15
75681;BME280;64294;49.176;16.626;2023-03-24T06:23:24;98611.81;;;13.96;73.03
75681;BME280;64294;49.176;16.626;2023-03-24T06:25:54;98613.97;;;14.05;72.38
75681;BME280;64294;49.176;16.626;2023-03-24T06:28:22;98613.81;;;14.03;72.21
75681;BME280;64294;49.176;16.626;2023-03-24T06:30:50;98605.69;;;14.24;71.83
75681;BME280;64294;49.176;16.626;2023-03-24T06:33:16;98613.25;;;14.22;70.31
75681;BME280;64294;49.176;16.626;2023-03-24T06:35:42;98603.94;;;14.12;70.86
75681;BME280;64294;49.176;16.626;2023-03-24T06:38:07;98604.69;;;14.12;71.22
75681;BME280;64294;49.176;16.626;2023-03-24T06:40:33;98602.84;;;14.07;71.40
75681;BME280;64294;49.176;16.626;2023-03-24T06:42:59;98595.13;;;14.08;71.37
75681;BME280;64294;49.176;16.626;2023-03-24T06:45:25;98591.66;;;14.17;70.70
75681;BME280;64294;49.176;16.626;2023-03-24T06:47:52;98597.53;;;14.29;71.32
75681;BME280;64294;49.176;16.626;2023-03-24T06:50:22;98597.66;;;14.38;70.79
75681;BME280;64294;49.176;16.626;2023-03-24T06:52:47;98603.66;;;14.77;68.72
75681;BME280;64294;49.176;16.626;2023-03-24T06:55:12;98604.97;;;14.76;68.71
75681;BME280;64294;49.176;16.626;2023-03-24T06:57:38;98609.69;;;15.08;67.33
75681;BME280;64294;49.176;16.626;2023-03-24T07:00:05;98604.91;;;15.37;66.14
75681;BME280;64294;49.176;16.626;2023-03-24T07:02:31;98599.69;;;15.61;63.12
75681;BME280;64294;49.176;16.626;2023-03-24T07:05:01;98599.50;;;15.95;62.96
75681;BME280;64294;49.176;16.626;2023-03-24T07:07:30;98600.09;;;15.84;61.90
75681;BME280;64294;49.176;16.626;2023-03-24T07:09:55;98603.91;;;16.35;60.18
75681;BME280;64294;49.176;16.626;2023-03-24T07:12:21;98597.38;;;16.71;58.94
75681;BME280;64294;49.176;16.626;2023-03-24T07:14:46;98606.75;;;16.25;59.48
75681;BME280;64294;49.176;16.626;2023-03-24T07:17:12;98586.16;;;16.54;58.65
75681;BME280;64294;49.176;16.626;2023-03-24T07:19:37;98585.66;;;17.25;56.74
75681;BME280;64294;49.176;16.626;2023-03-24T07:22:02;98589.38;;;17.78;55.16
75681;BME280;64294;49.176;16.626;2023-03-24T07:24:28;98583.38;;;19.35;49.92
75681;BME280;64294;49.176;16.626;2023-03-24T07:26:53;98581.25;;;20.41;46.33
75681;BME280;64294;49.176;16.626;2023-03-24T07:29:19;98587.25;;;20.70;45.39
75681;BME280;64294;49.176;16.626;2023-03-24T07:31:44;98575.66;;;21.97;42.24
75681;BME280;64294;49.176;16.626;2023-03-24T07:34:13;98576.78;;;22.47;40.62
75681;BME280;64294;49.176;16.626;2023-03-24T07:36:38;98594.50;;;20.85;43.53
75681;BME280;64294;49.176;16.626;2023-03-24T07:39:03;98581.84;;;21.39;42.66
75681;BME280;64294;49.176;16.626;2023-03-24T07:41:29;98580.84;;;21.34;43.08
75681;BME280;64294;49.176;16.626;2023-03-24T07:43:54;98578.28;;;21.66;42.96
75681;BME280;64294;49.176;16.626;2023-03-24T07:46:20;98582.75;;;21.83;43.66
75681;BME280;64294;49.176;16.626;2023-03-24T07:48:46;98580.19;;;22.44;41.63
75681;BME280;64294;49.176;16.626;2023-03-24T07:51:11;98578.34;;;23.07;39.73
75681;BME280;64294;49.176;16.626;2023-03-24T07:53:37;98575.97;;;23.33;38.64
75681;BME280;64294;49.176;16.626;2023-03-24T07:56:02;98575.44;;;24.00;37.06
75681;BME280;64294;49.176;16.626;2023-03-24T07:58:28;98579.41;;;23.61;37.24
75681;BME280;64294;49.176;16.626;2023-03-24T08:00:53;98574.44;;;22.57;39.66
75681;BME280;64294;49.176;16.626;2023-03-24T08:03:19;98576.69;;;21.90;40.48
75681;BME280;64294;49.176;16.626;2023-03-24T08:05:49;98582.94;;;21.73;40.83
75681;BME280;64294;49.176;16.626;2023-03-24T08:08:14;98582.50;;;20.75;43.14
75681;BME280;64294;49.176;16.626;2023-03-24T08:10:40;98586.06;;;20.87;42.41
75681;BME280;64294;49.176;16.626;2023-03-24T08:13:06;98577.88;;;21.32;41.76
75681;BME280;64294;49.176;16.626;2023-03-24T08:15:32;98584.34;;;22.27;39.96
75681;BME280;64294;49.176;16.626;2023-03-24T08:17:57;98577.44;;;23.97;37.33
75681;BME280;64294;49.176;16.626;2023-03-24T08:20:23;98579.72;;;24.84;34.36
75681;BME280;64294;49.176;16.626;2023-03-24T08:22:51;98584.44;;;25.11;34.73
75681;BME280;64294;49.176;16.626;2023-03-24T08:25:20;98562.31;;;24.97;34.98
75681;BME280;64294;49.176;16.626;2023-03-24T08:27:46;98557.19;;;26.29;32.28
75681;BME280;64294;49.176;16.626;2023-03-24T08:30:16;98561.97;;;26.62;31.28
75681;BME280;64294;49.176;16.626;2023-03-24T08:32:44;98551.22;;;27.08;30.70
75681;BME280;64294;49.176;16.626;2023-03-24T08:35:13;98541.38;;;28.15;29.68
75681;BME280;64294;49.176;16.626;2023-03-24T08:37:40;98545.44;;;28.59;27.83
75681;BME280;64294;49.176;16.626;2023-03-24T08:40:11;98547.97;;;31.26;24.76
75681;BME280;64294;49.176;16.626;2023-03-24T08:42:39;98553.84;;;30.86;24.81
75681;BME280;64294;49.176;16.626;2023-03-24T08:45:10;98558.47;;;29.84;25.41
75681;BME280;64294;49.176;16.626;2023-03-24T08:47:38;98558.41;;;29.46;26.26
75681;BME280;64294;49.176;16.626;2023-03-24T08:50:05;98561.06;;;27.46;28.42
75681;BME280;64294;49.176;16.626;2023-03-24T08:52:31;98560.19;;;27.18;29.90
75681;BME280;64294;49.176;16.626;2023-03-24T08:54:56;98560.34;;;26.78;29.47
75681;BME280;64294;49.176;16.626;2023-03-24T08:57:22;98558.13;;;26.55;30.00
75681;BME280;64294;49.176;16.626;2023-03-24T08:59:47;98566.16;;;25.40;30.82
75681;BME280;64294;49.176;16.626;2023-03-24T09:02:15;98558.28;;;25.22;32.00
75681;BME280;64294;49.176;16.626;2023-03-24T09:04:41;98561.28;;;23.88;34.31
75681;BME280;64294;49.176;16.626;2023-03-24T09:07:08;98562.91;;;22.85;36.33
75681;BME280;64294;49.176;16.626;2023-03-24T09:09:33;98559.97;;;21.98;38.26
75681;BME280;64294;49.176;16.626;2023-03-24T09:11:58;98552.56;;;22.64;37.52
75681;BME280;64294;49.176;16.626;2023-03-24T09:14:24;98553.13;;;22.47;37.50
75681;BME280;64294;49.176;16.626;2023-03-24T09:16:49;98554.69;;;22.06;37.99
75681;BME280;64294;49.176;16.626;2023-03-24T09:19:16;98543.13;;;22.61;37.45
75681;BME280;64294;49.176;16.626;2023-03-24T09:21:48;98549.63;;;22.48;37.85
75681;BME280;64294;49.176;16.626;2023-03-24T09:24:14;98546.78;;;20.62;41.54
75681;BME280;64294;49.176;16.626;2023-03-24T09:26:39;98544.16;;;21.17;40.75
75681;BME280;64294;49.176;16.626;2023-03-24T09:29:05;98539.72;;;20.63;41.08
75681;BME280;64294;49.176;16.626;2023-03-24T09:31:31;98541.16;;;20.39;42.31
75681;BME280;64294;49.176;16.626;2023-03-24T09:33:56;98541.94;;;21.82;39.59
75681;BME280;64294;49.176;16.626;2023-03-24T09:36:22;98534.31;;;22.71;37.36
75681;BME280;64294;49.176;16.626;2023-03-24T09:38:47;98540.94;;;23.05;37.01
75681;BME280;64294;49.176;16.626;2023-03-24T09:41:16;98530.34;;;23.23;36.25
75681;BME280;64294;49.176;16.626;2023-03-24T09:43:50;98531.13;;;23.71;34.99
75681;BME280;64294;49.176;16.626;2023-03-24T09:46:27;98535.88;;;22.74;36.38
75681;BME280;64294;49.176;16.626;2023-03-24T09:48:55;98528.47;;;22.99;36.01
75681;BME280;64294;49.176;16.626;2023-03-24T09:51:31;98528.06;;;21.90;37.41
75681;BME280;64294;49.176;16.626;2023-03-24T09:54:00;98530.50;;;21.82;37.95
75681;BME280;64294;49.176;16.626;2023-03-24T09:56:31;98518.09;;;21.50;39.46
75681;BME280;64294;49.176;16.626;2023-03-24T09:59:13;98517.34;;;21.91;38.10
75681;BME280;64294;49.176;16.626;2023-03-24T10:01:41;98516.38;;;22.71;36.88
75681;BME280;64294;49.176;16.626;2023-03-24T10:04:16;98513.69;;;22.45;36.67
75681;BME280;64294;49.176;16.626;2023-03-24T10:06:43;98512.09;;;22.13;37.72
75681;BME280;64294;49.176;16.626;2023-03-24T10:09:29;98516.63;;;21.10;39.73
75681;BME280;64294;49.176;16.626;2023-03-24T10:12:31;98508.66;;;20.69;40.73
75681;BME280;64294;49.176;16.626;2023-03-24T10:17:42;98508.94;;;20.62;41.28
75681;BME280;64294;49.176;16.626;2023-03-24T10:28:37;98504.31;;;21.33;40.31
75681;BME280;64294;49.176;16.626;2023-03-24T10:31:09;98510.59;;;21.17;39.61
75681;BME280;64294;49.176;16.626;2023-03-24T10:33:39;98515.78;;;20.56;42.14
75681;BME280;64294;49.176;16.626;2023-03-24T10:36:16;98506.94;;;20.90;41.28
75681;BME280;64294;49.176;16.626;2023-03-24T10:38:43;98512.94;;;20.56;41.07
75681;BME280;64294;49.176;16.626;2023-03-24T10:41:23;98511.66;;;20.22;42.57
75681;BME280;64294;49.176;16.626;2023-03-24T10:43:53;98508.59;;;20.18;42.90
75681;BME280;64294;49.176;16.626;2023-03-24T10:46:24;98509.13;;;20.52;42.55
75681;BME280;64294;49.176;16.626;2023-03-24T10:49:13;98518.94;;;20.49;40.96
75681;BME280;64294;49.176;16.626;2023-03-24T10:51:48;98519.81;;;21.16;39.43
75681;BME280;64294;49.176;16.626;2023-03-24T10:54:19;98497.44;;;22.06;39.12
75681;BME280;64294;49.176;16.626;2023-03-24T10:56:50;98502.69;;;22.69;37.68
75681;BME280;64294;49.176;16.626;2023-03-24T10:59:27;98503.69;;;23.05;36.40
75681;BME280;64294;49.176;16.626;2023-03-24T11:04:34;98498.97;;;22.66;36.51
75681;BME280;64294;49.176;16.626;2023-03-24T11:07:13;98500.19;;;22.32;37.20
75681;BME280;64294;49.176;16.626;2023-03-24T11:09:57;98497.53;;;22.22;37.87
75681;BME280;64294;49.176;16.626;2023-03-24T11:12:28;98491.09;;;21.94;38.20
75681;BME280;64294;49.176;16.626;2023-03-24T11:17:37;98488.63;;;22.59;37.43
75681;BME280;64294;49.176;16.626;2023-03-24T11:20:03;98482.84;;;22.73;36.91
75681;BME280;64294;49.176;16.626;2023-03-24T11:22:40;98488.22;;;22.08;38.00
75681;BME280;64294;49.176;16.626;2023-03-24T11:25:10;98491.66;;;21.77;39.12
75681;BME280;64294;49.176;16.626;2023-03-24T11:27:43;98491.88;;;21.14;39.75
75681;BME280;64294;49.176;16.626;2023-03-24T11:30:12;98491.41;;;20.42;41.79
75681;BME280;64294;49.176;16.626;2023-03-24T11:32:44;98487.59;;;20.25;42.10
75681;BME280;64294;49.176;16.626;2023-03-24T11:35:15;98480.34;;;20.11;42.52
75681;BME280;64294;49.176;16.626;2023-03-24T11:37:43;98478.91;;;19.86;43.21
75681;BME280;64294;49.176;16.626;2023-03-24T11:42:44;98479.91;;;19.44;42.76
75681;BME280;64294;49.176;16.626;2023-03-24T11:47:50;98461.72;;;19.26;43.48
75681;BME280;64294;49.176;16.626;2023-03-24T11:50:23;98455.22;;;19.95;42.49
75681;BME280;64294;49.176;16.626;2023-03-24T11:52:52;98448.88;;;19.97;41.73
75681;BME280;64294;49.176;16.626;2023-03-24T11:55:34;98441.94;;;20.25;41.34
75681;BME280;64294;49.176;16.626;2023-03-24T12:00:31;98446.72;;;20.46;40.33
75681;BME280;64294;49.176;16.626;2023-03-24T12:08:57;98443.66;;;20.31;40.85
75681;BME280;64294;49.176;16.626;2023-03-24T12:11:32;98437.59;;;20.24;40.79
75681;BME280;64294;49.176;16.626;2023-03-24T12:14:04;98430.53;;;19.88;41.41
75681;BME280;64294;49.176;16.626;2023-03-24T12:19:14;98418.00;;;19.56;41.97
75681;BME280;64294;49.176;16.626;2023-03-24T12:24:47;98419.09;;;19.40;42.24
75681;BME280;64294;49.176;16.626;2023-03-24T12:27:36;98417.88;;;19.54;42.07
75681;BME280;64294;49.176;16.626;2023-03-24T12:30:30;98419.72;;;19.38;42.16
75681;BME280;64294;49.176;16.626;2023-03-24T12:44:44;98426.28;;;20.01;41.09
75681;BME280;64294;49.176;16.626;2023-03-24T12:58:21;98407.19;;;20.94;39.43
75681;BME280;64294;49.176;16.626;2023-03-24T13:01:04;98398.09;;;20.83;39.29
75681;BME280;64294;49.176;16.626;2023-03-24T13:03:45;98400.31;;;20.46;39.93
75681;BME280;64294;49.176;16.626;2023-03-24T13:06:32;98409.59;;;20.21;40.23
75681;BME280;64294;49.176;16.626;2023-03-24T13:09:09;98402.44;;;20.45;40.23
75681;BME280;64294;49.176;16.626;2023-03-24T13:11:46;98407.09;;;20.52;39.84
75681;BME280;64294;49.176;16.626;2023-03-24T13:14:26;98396.59;;;20.43;40.66
75681;BME280;64294;49.176;16.626;2023-03-24T13:17:02;98399.66;;;20.73;40.32
75681;BME280;64294;49.176;16.626;2023-03-24T13:19:29;98393.31;;;20.74;40.11
75681;BME280;64294;49.176;16.626;2023-03-24T13:21:55;98399.72;;;20.10;41.21
75681;BME280;64294;49.176;16.626;2023-03-24T13:24:22;98388.66;;;20.16;40.99
75681;BME280;64294;49.176;16.626;2023-03-24T13:32:51;98398.47;;;20.13;41.49
75681;BME280;64294;49.176;16.626;2023-03-24T13:37:56;98395.97;;;20.19;41.71
75681;BME280;64294;49.176;16.626;2023-03-24T13:40:27;98402.22;;;20.04;41.88
75681;BME280;64294;49.176;16.626;2023-03-24T13:42:56;98389.19;;;19.76;42.74
75681;BME280;64294;49.176;16.626;2023-03-24T13:45:34;98386.53;;;19.54;43.51
75681;BME280;64294;49.176;16.626;2023-03-24T13:50:56;98384.44;;;19.20;45.08
75681;BME280;64294;49.176;16.626;2023-03-24T13:53:38;98388.28;;;19.01;45.68
75681;BME280;64294;49.176;16.626;2023-03-24T13:56:07;98397.28;;;18.74;46.80
75681;BME280;64294;49.176;16.626;2023-03-24T14:06:47;98409.94;;;18.38;48.17
75681;BME280;64294;49.176;16.626;2023-03-24T14:09:41;98410.91;;;18.31;51.10
75681;BME280;64294;49.176;16.626;2023-03-24T14:14:27;98445.41;;;17.61;60.87
75681;BME280;64294;49.176;16.626;2023-03-24T14:17:14;98461.19;;;17.21;65.73
75681;BME280;64294;49.176;16.626;2023-03-24T14:20:11;98453.16;;;17.08;64.45
75681;BME280;64294;49.176;16.626;2023-03-24T14:22:44;98454.84;;;17.02;63.71
75681;BME280;64294;49.176;16.626;2023-03-24T14:27:40;98444.38;;;17.04;62.51
75681;BME280;64294;49.176;16.626;2023-03-24T14:30:12;98440.03;;;17.03;64.91
75681;BME280;64294;49.176;16.626;2023-03-24T14:32:46;98436.13;;;17.08;63.04
75681;BME280;64294;49.176;16.626;2023-03-24T14:35:38;98445.72;;;17.03;62.95
75681;BME280;64294;49.176;16.626;2023-03-24T14:40:42;98438.81;;;17.06;61.77
75681;BME280;64294;49.176;16.626;2023-03-24T14:50:52;98430.84;;;16.83;63.35
75681;BME280;64294;49.176;16.626;2023-03-24T14:53:19;98416.25;;;16.68;64.30
75681;BME280;64294;49.176;16.626;2023-03-24T14:55:46;98418.66;;;16.61;63.14
75681;BME280;64294;49.176;16.626;2023-03-24T14:58:30;98410.00;;;16.59;64.84
75681;BME280;64294;49.176;16.626;2023-03-24T15:01:01;98412.38;;;16.53;64.36
75681;BME280;64294;49.176;16.626;2023-03-24T15:06:25;98415.69;;;16.50;65.08
75681;BME280;64294;49.176;16.626;2023-03-24T15:08:56;98409.28;;;16.49;66.24
75681;BME280;64294;49.176;16.626;2023-03-24T15:11:25;98401.41;;;16.38;65.72
75681;BME280;64294;49.176;16.626;2023-03-24T15:13:53;98388.72;;;16.29;66.67
75681;BME280;64294;49.176;16.626;2023-03-24T15:16:25;98383.22;;;16.22;66.78
75681;BME280;64294;49.176;16.626;2023-03-24T15:18:55;98376.06;;;16.21;66.70
75681;BME280;64294;49.176;16.626;2023-03-24T15:21:34;98370.81;;;16.27;67.30
75681;BME280;64294;49.176;16.626;2023-03-24T15:24:00;98365.47;;;16.12;67.81
75681;BME280;64294;49.176;16.626;2023-03-24T15:26:28;98375.03;;;15.97;67.13
75681;BME280;64294;49.176;16.626;2023-03-24T15:28:57;98385.47;;;15.94;66.37